Southworth, Washington
Current Conditions -  °F | °C
As of 1:53 PM on Monday 20 Oct 2014 (Local Time) from KBFI Reporting Station
Broken Clouds Broken Clouds  
Wind Chill: 63°   Ceiling: 7500
Heat Index: 63°   Visibility: 10mi
Dew Point: 55°   Wind: 7mph
Humidity: 75%   Direction: 160°SSE
Pressure: 29.76"   Gusts: NA
Location:  47.51°N, 122.5°W
Report Text: KBFI 202053Z 16006KT 10SM BKN075 BKN095 17/13 A2976 RMK AO2 SLP077 T01720128 55001
Loading
Personal Weather Stations






























Interactive Weather Map
Tropical Storm Tracking
New forecast layout! Learn more

10-Day Weather Forecast

Advertisements
Track Severe Weather on mobile